Time;durP1;ratioP1;P1;durP2;ratioP2;P2;SDS_P1;SDS_P2;PMS_P1;PMS_P2;Temp;Humidity;BMP_temperature;BMP_pressure;BME280_temperature;BME280_humidity;BME280_pressure;Samples;Min_cycle;Max_cycle;Signal;HPM_P1;HPM_P2
2021/12/19 00:08:28;;;;;;;75.90;16.45;;;;;;;-2.30;95.56;95343.56;4840658;29;20049;-62
2021/12/19 00:10:10;;;;;;;46.95;14.98;;;;;;;-2.16;94.86;95348.16;4812463;29;20054;-62
2021/12/19 00:12:37;;;;;;;46.43;14.57;;;;;;;-2.18;94.42;95335.00;4822756;29;20058;-62
2021/12/19 00:15:04;;;;;;;44.35;14.23;;;;;;;-2.05;94.33;95328.03;4823068;29;20079;-63
2021/12/19 00:17:31;;;;;;;51.67;14.30;;;;;;;-2.18;93.80;95326.16;4822843;29;20063;-62
2021/12/19 00:19:58;;;;;;;51.88;14.05;;;;;;;-2.17;93.89;95315.09;4822708;29;20071;-62
2021/12/19 00:22:44;;;;;;;52.92;15.15;;;;;;;-2.09;93.67;95321.69;4821987;29;20109;-61
2021/12/19 00:25:11;;;;;;;57.23;13.70;;;;;;;-2.14;93.25;95322.56;4836528;29;20050;-61
2021/12/19 00:27:38;;;;;;;81.63;15.05;;;;;;;-2.59;94.43;95321.56;4821737;29;20054;-61
2021/12/19 00:30:05;;;;;;;76.18;16.65;;;;;;;-2.61;96.33;95317.28;4822797;29;20042;-62
2021/12/19 00:32:32;;;;;;;62.05;14.88;;;;;;;-2.36;95.58;95312.50;4822268;29;20441;-62
2021/12/19 00:34:59;;;;;;;56.17;14.85;;;;;;;-2.28;94.92;95324.47;4822461;29;20047;-62
2021/12/19 00:37:25;;;;;;;56.90;14.13;;;;;;;-2.19;94.78;95311.09;4821936;29;20073;-62
2021/12/19 00:39:52;;;;;;;68.65;14.43;;;;;;;-2.07;94.49;95311.41;4822166;29;20050;-62
2021/12/19 00:42:32;;;;;;;72.50;14.02;;;;;;;-2.42;93.95;95317.19;4822719;29;20050;-62
2021/12/19 00:45:02;;;;;;;99.28;14.15;;;;;;;-2.37;94.49;95310.09;4835180;29;20056;-62
2021/12/19 00:47:29;;;;;;;59.92;13.25;;;;;;;-2.59;94.39;95316.19;4821887;29;20053;-62
2021/12/19 00:49:56;;;;;;;79.60;17.77;;;;;;;-2.53;95.35;95317.69;4827375;29;20053;-62
2021/12/19 00:52:40;;;;;;;61.80;14.38;;;;;;;-2.39;94.91;95323.06;4853963;29;20053;-62
2021/12/19 00:55:07;;;;;;;117.40;14.65;;;;;;;-2.99;94.83;95324.69;4839002;29;20097;-62
2021/12/19 00:57:35;;;;;;;97.60;15.52;;;;;;;-3.21;96.98;95333.34;4839458;29;20103;-62
2021/12/19 01:00:04;;;;;;;183.57;18.70;;;;;;;-3.23;97.03;95335.53;4840441;29;20050;-62
2021/12/19 01:02:30;;;;;;;62.87;15.37;;;;;;;-2.97;97.44;95327.06;4840024;29;20064;-61
2021/12/19 01:04:57;;;;;;;51.83;13.82;;;;;;;-2.60;96.29;95323.44;4840186;29;20049;-62
2021/12/19 01:07:24;;;;;;;137.77;16.77;;;;;;;-2.59;95.04;95332.31;4837292;29;20060;-62
2021/12/19 01:09:51;;;;;;;61.83;14.48;;;;;;;-2.55;94.33;95328.72;4808826;29;20053;-62
2021/12/19 01:12:18;;;;;;;44.58;13.93;;;;;;;-2.36;94.93;95323.25;4803404;29;20047;-61
2021/12/19 01:14:45;;;;;;;46.10;13.90;;;;;;;-2.34;94.03;95321.06;4803226;29;20066;-62
2021/12/19 01:17:11;;;;;;;88.63;14.55;;;;;;;-2.36;94.15;95319.78;4803868;29;20447;-62
2021/12/19 01:19:38;;;;;;;86.88;14.88;;;;;;;-2.30;93.45;95324.75;4803135;29;20515;-64
2021/12/19 01:22:05;;;;;;;50.42;13.27;;;;;;;-2.21;93.75;95322.19;4817577;29;20180;-62
2021/12/19 01:24:32;;;;;;;48.65;12.73;;;;;;;-2.28;92.81;95324.47;4803099;29;20051;-62
2021/12/19 01:26:59;;;;;;;43.00;12.67;;;;;;;-2.32;93.04;95321.56;4803236;29;20119;-62
2021/12/19 01:29:26;;;;;;;116.03;14.98;;;;;;;-2.62;93.92;95317.56;4803117;29;20047;-62
2021/12/19 01:31:53;;;;;;;111.82;14.75;;;;;;;-2.70;94.03;95319.03;4803296;29;20055;-62
2021/12/19 01:34:19;;;;;;;45.30;14.00;;;;;;;-2.44;94.29;95322.06;4803466;29;20104;-62
2021/12/19 01:36:46;;;;;;;50.38;13.52;;;;;;;-2.37;94.07;95307.41;4802426;29;20481;-62
2021/12/19 01:39:14;;;;;;;53.30;13.70;;;;;;;-2.34;93.84;95307.63;4803159;29;20050;-61
2021/12/19 01:41:53;;;;;;;95.47;14.05;;;;;;;-2.44;93.45;95315.88;4802739;29;20046;-62
2021/12/19 01:44:21;;;;;;;69.53;14.38;;;;;;;-2.85;95.33;95314.75;4803047;29;20462;-59
2021/12/19 01:46:49;;;;;;;95.20;14.25;;;;;;;-2.64;95.30;95312.47;4801692;29;20077;-62
2021/12/19 01:49:17;;;;;;;136.43;16.05;;;;;;;-2.74;94.59;95312.66;4803234;29;20443;-62
2021/12/19 01:51:44;;;;;;;114.40;17.03;;;;;;;-2.81;94.91;95317.66;4802625;29;20046;-62
2021/12/19 01:54:11;;;;;;;85.10;14.48;;;;;;;-2.84;96.57;95313.69;4803080;29;20065;-62
2021/12/19 01:56:39;;;;;;;77.35;14.27;;;;;;;-2.59;95.64;95303.53;4802730;29;20098;-62
2021/12/19 01:59:10;;;;;;;71.35;15.18;;;;;;;-2.56;94.33;95300.25;4803326;29;20047;-62
2021/12/19 02:01:53;;;;;;;63.00;14.50;;;;;;;-2.76;94.58;95298.72;4802668;29;20053;-62
2021/12/19 02:04:29;;;;;;;46.90;12.97;;;;;;;-2.54;94.50;95300.75;4803192;29;20130;-62
2021/12/19 02:06:58;;;;;;;41.70;13.25;;;;;;;-2.40;94.15;95303.44;4832313;29;20271;-62
2021/12/19 02:09:25;;;;;;;67.30;13.05;;;;;;;-2.53;93.10;95302.34;4813213;29;20047;-62
2021/12/19 02:11:52;;;;;;;72.57;12.80;;;;;;;-2.48;93.43;95299.56;4803560;29;20493;-62
2021/12/19 02:14:20;;;;;;;67.13;13.40;;;;;;;-2.52;93.14;95293.19;4802904;29;20069;-62
2021/12/19 02:16:47;;;;;;;104.33;14.47;;;;;;;-2.64;93.10;95288.28;4801980;29;21701;-62
2021/12/19 02:19:14;;;;;;;59.53;12.95;;;;;;;-2.57;93.27;95287.91;4803057;29;20046;-64
2021/12/19 02:21:41;;;;;;;42.95;12.32;;;;;;;-2.69;93.62;95288.41;4802659;29;20059;-62
2021/12/19 02:24:11;;;;;;;65.78;13.02;;;;;;;-2.69;93.44;95287.63;4805719;29;20118;-62
2021/12/19 02:26:39;;;;;;;46.85;13.48;;;;;;;-2.90;93.67;95290.66;4806148;29;20051;-62
2021/12/19 02:29:06;;;;;;;47.60;12.87;;;;;;;-2.69;93.70;95290.31;4806390;29;20505;-62
2021/12/19 02:31:34;;;;;;;60.95;13.43;;;;;;;-2.70;93.43;95286.00;4805976;29;20046;-62
2021/12/19 02:34:07;;;;;;;88.43;13.98;;;;;;;-2.73;93.44;95281.25;4806465;29;20058;-62
2021/12/19 02:36:51;;;;;;;44.28;12.35;;;;;;;-2.87;94.11;95282.00;4806212;29;20047;-61
2021/12/19 02:39:51;;;;;;;114.60;13.07;;;;;;;-2.83;93.21;95279.53;4820312;29;20057;-62
2021/12/19 02:50:25;;;;;;;47.58;12.43;;;;;;;-2.94;93.84;95268.16;4822931;29;20460;-62
2021/12/19 02:52:53;;;;;;;51.70;12.30;;;;;;;-3.09;94.02;95273.81;4842675;29;20113;-62
2021/12/19 02:55:19;;;;;;;68.00;14.03;;;;;;;-3.31;94.82;95271.78;4842576;29;20038;-62
2021/12/19 02:57:48;;;;;;;50.30;12.98;;;;;;;-3.19;95.71;95276.69;4841268;29;20410;-62
2021/12/19 03:00:19;;;;;;;48.88;12.98;;;;;;;-3.04;95.21;95257.59;4842531;29;20050;-62
2021/12/19 03:02:46;;;;;;;103.00;14.40;;;;;;;-3.46;95.33;95265.56;4841632;29;20348;-62
2021/12/19 03:05:13;;;;;;;67.13;12.48;;;;;;;-3.76;96.24;95263.34;4842340;29;20109;-61
2021/12/19 03:07:42;;;;;;;87.33;15.10;;;;;;;-3.74;97.37;95255.81;4851602;29;20089;-62
2021/12/19 03:18:38;;;;;;;63.50;14.80;;;;;;;-3.71;96.43;95245.28;4805321;29;20055;-61
2021/12/19 03:21:10;;;;;;;85.03;15.67;;;;;;;-3.74;95.92;95237.84;4805652;29;20458;-61
2021/12/19 03:23:38;;;;;;;72.60;13.57;;;;;;;-3.73;95.54;95235.94;4805531;29;20051;-61
2021/12/19 03:26:05;;;;;;;53.30;14.93;;;;;;;-3.80;95.78;95228.28;4805311;29;20057;-61
2021/12/19 03:28:32;;;;;;;85.35;15.77;;;;;;;-3.81;95.34;95224.78;4805279;29;20365;-61
2021/12/19 03:30:59;;;;;;;50.65;13.48;;;;;;;-4.00;95.66;95229.38;4805490;29;20047;-61
2021/12/19 03:33:26;;;;;;;67.97;14.40;;;;;;;-4.09;96.18;95233.78;4805145;29;20059;-61
2021/12/19 03:35:52;;;;;;;83.55;18.23;;;;;;;-3.94;96.60;95230.91;4804705;29;20042;-61
2021/12/19 03:38:20;;;;;;;44.65;13.07;;;;;;;-3.98;96.18;95232.56;4805379;29;20059;-62
2021/12/19 03:41:07;;;;;;;38.75;12.48;;;;;;;-4.11;95.95;95225.25;4804752;29;20620;-63
2021/12/19 03:43:34;;;;;;;33.45;10.88;;;;;;;-4.06;95.92;95219.81;4804974;29;20059;-62
2021/12/19 03:46:01;;;;;;;46.07;11.33;;;;;;;-3.95;95.99;95220.47;4805297;29;20072;-61
2021/12/19 03:48:28;;;;;;;65.97;12.48;;;;;;;-3.89;95.45;95214.72;4805048;29;20047;-61
2021/12/19 03:50:55;;;;;;;62.10;12.95;;;;;;;-3.93;95.01;95219.06;4829752;29;20042;-61
2021/12/19 03:53:22;;;;;;;38.35;12.40;;;;;;;-3.88;94.75;95221.69;4839754;29;20046;-62
2021/12/19 03:55:50;;;;;;;36.38;11.45;;;;;;;-3.71;94.70;95218.47;4841212;29;20046;-62
2021/12/19 03:58:19;;;;;;;36.17;11.37;;;;;;;-3.66;94.31;95221.09;4841359;29;20056;-62
2021/12/19 04:00:47;;;;;;;31.25;10.70;;;;;;;-3.60;93.93;95221.81;4840431;29;20603;-62
2021/12/19 04:03:19;;;;;;;30.75;10.45;;;;;;;-3.56;93.71;95224.66;4841318;29;20522;-61
2021/12/19 04:05:49;;;;;;;29.25;10.35;;;;;;;-3.52;92.79;95226.50;4840442;29;20534;-61
2021/12/19 04:08:17;;;;;;;32.13;10.43;;;;;;;-3.46;92.73;95228.00;4841267;29;20390;-61
2021/12/19 04:10:46;;;;;;;37.00;10.87;;;;;;;-3.39;92.08;95230.28;4840898;29;20046;-61
2021/12/19 04:13:14;;;;;;;38.42;10.80;;;;;;;-3.39;92.11;95218.78;4841222;29;20053;-61
2021/12/19 04:15:41;;;;;;;31.33;11.80;;;;;;;-3.26;91.66;95216.13;4841049;29;20056;-61
2021/12/19 04:18:08;;;;;;;49.63;10.80;;;;;;;-3.40;91.64;95209.94;4840945;29;20042;-62
2021/12/19 04:20:35;;;;;;;32.13;10.27;;;;;;;-3.93;92.35;95208.34;4840737;29;20076;-62
2021/12/19 04:23:03;;;;;;;39.37;10.00;;;;;;;-3.77;93.16;95205.44;4840886;29;20045;-62
2021/12/19 04:25:30;;;;;;;35.70;10.82;;;;;;;-3.97;93.19;95203.88;4840636;29;20045;-62
2021/12/19 04:27:57;;;;;;;30.30;10.02;;;;;;;-4.02;93.54;95205.53;4839613;29;20060;-62
2021/12/19 04:30:25;;;;;;;27.10;10.13;;;;;;;-4.23;93.06;95207.69;4840603;29;20049;-59
2021/12/19 04:33:07;;;;;;;29.90;10.10;;;;;;;-4.21;93.57;95210.09;4839491;29;20048;-61
2021/12/19 04:35:36;;;;;;;30.30;10.40;;;;;;;-4.04;93.19;95201.56;4840314;29;20046;-62
2021/12/19 04:39:00;;;;;;;31.55;10.13;;;;;;;-3.85;93.01;95209.56;4840516;29;20151;-62
2021/12/19 04:41:53;;;;;;;33.05;10.98;;;;;;;-3.74;92.09;95213.69;4839700;29;21354;-62
2021/12/19 04:55:37;;;;;;;52.92;17.15;;;;;;;-3.58;91.54;95216.94;4840675;29;20371;-61
2021/12/19 05:00:06;;;;;;;37.05;10.65;;;;;;;-3.45;91.13;95196.59;4839428;29;20742;-61
2021/12/19 05:15:50;;;;;;;46.13;9.43;;;;;;;-3.64;91.01;95197.44;4839311;29;20635;-61
2021/12/19 05:18:18;;;;;;;78.90;10.20;;;;;;;-3.98;91.61;95196.91;4839855;29;20080;-61
2021/12/19 05:21:12;;;;;;;40.03;9.30;;;;;;;-4.15;92.75;95208.94;4838997;29;20093;-62
2021/12/19 05:23:49;;;;;;;69.28;10.35;;;;;;;-3.92;92.89;95215.31;4838467;29;20072;-61
2021/12/19 05:26:16;;;;;;;34.10;9.20;;;;;;;-3.74;92.54;95211.03;4839639;29;20045;-62
2021/12/19 05:28:43;;;;;;;46.30;9.40;;;;;;;-3.75;91.67;95201.38;4839296;29;20046;-62
2021/12/19 05:31:10;;;;;;;63.50;9.60;;;;;;;-4.01;91.21;95193.72;4839747;29;20403;-61
2021/12/19 05:33:37;;;;;;;40.55;9.40;;;;;;;-4.10;92.12;95192.78;4838338;29;20046;-62
2021/12/19 05:47:02;;;;;;;36.58;11.15;;;;;;;-3.82;92.03;95192.91;4839354;29;20069;-61
2021/12/19 05:49:29;;;;;;;43.70;12.05;;;;;;;-3.77;91.81;95192.03;4820885;29;20062;-62
2021/12/19 05:51:57;;;;;;;33.90;11.43;;;;;;;-3.81;91.52;95192.59;4838251;29;20053;-62
2021/12/19 05:54:24;;;;;;;97.20;10.97;;;;;;;-3.76;91.07;95190.91;4839351;29;20443;-61
2021/12/19 05:56:51;;;;;;;57.65;10.80;;;;;;;-4.14;92.26;95185.63;4839404;29;20046;-61
2021/12/19 05:59:19;;;;;;;130.27;12.32;;;;;;;-4.21;92.79;95181.41;4839121;29;20056;-61
2021/12/19 06:01:46;;;;;;;68.35;10.63;;;;;;;-4.19;93.45;95178.44;4838794;29;21766;-61
2021/12/19 06:04:13;;;;;;;66.20;10.60;;;;;;;-4.21;92.56;95181.41;4839557;29;20045;-61
2021/12/19 06:06:41;;;;;;;76.50;10.23;;;;;;;-4.33;92.99;95189.09;4839063;29;20064;-62
2021/12/19 06:09:08;;;;;;;49.60;10.15;;;;;;;-4.47;93.05;95189.00;4839013;29;20066;-61
2021/12/19 06:11:34;;;;;;;32.00;9.90;;;;;;;-4.60;92.83;95188.94;4838993;29;20061;-61
2021/12/19 06:14:02;;;;;;;32.35;9.23;;;;;;;-4.70;93.05;95187.97;4839289;29;20109;-61
2021/12/19 06:16:29;;;;;;;32.88;9.27;;;;;;;-4.75;93.80;95185.34;4839092;29;20495;-61
2021/12/19 06:18:56;;;;;;;26.27;9.23;;;;;;;-4.81;93.52;95170.44;4839272;29;20498;-62
2021/12/19 06:21:23;;;;;;;27.33;8.77;;;;;;;-4.90;94.29;95177.53;4839051;29;20053;-61
2021/12/19 06:23:50;;;;;;;33.83;9.77;;;;;;;-4.93;94.20;95168.19;4839493;29;20050;-61
2021/12/19 06:26:17;;;;;;;27.85;9.50;;;;;;;-4.77;94.79;95171.47;4839218;29;20054;-62
2021/12/19 06:28:44;;;;;;;31.25;10.40;;;;;;;-4.69;94.15;95173.53;4838702;29;20048;-61
2021/12/19 06:31:10;;;;;;;32.30;10.50;;;;;;;-4.49;93.58;95177.78;4838984;29;20068;-61
2021/12/19 06:33:37;;;;;;;30.70;9.43;;;;;;;-4.34;92.81;95168.75;4838736;29;20189;-61
2021/12/19 06:36:05;;;;;;;29.77;9.98;;;;;;;-4.43;92.04;95165.94;4838959;29;20049;-62
2021/12/19 06:38:32;;;;;;;48.03;9.82;;;;;;;-4.48;92.32;95168.69;4838519;29;20112;-61
2021/12/19 06:40:59;;;;;;;28.98;9.77;;;;;;;-4.88;93.60;95167.31;4852955;29;20076;-61
2021/12/19 06:43:26;;;;;;;25.27;9.17;;;;;;;-4.83;93.60;95165.41;4838661;29;20042;-62
2021/12/19 06:45:55;;;;;;;27.33;9.85;;;;;;;-4.83;92.91;95159.22;4838825;29;20108;-61
2021/12/19 06:48:24;;;;;;;27.05;9.00;;;;;;;-4.91;92.70;95158.00;4838461;29;20371;-61
2021/12/19 06:50:51;;;;;;;28.83;10.77;;;;;;;-4.93;93.15;95148.63;4838804;29;20042;-61
2021/12/19 06:53:18;;;;;;;35.17;12.68;;;;;;;-5.00;92.39;95149.00;4838863;29;20081;-61
2021/12/19 06:55:45;;;;;;;28.33;9.43;;;;;;;-4.87;92.50;95145.63;4838524;29;20064;-61
2021/12/19 06:58:12;;;;;;;24.92;9.73;;;;;;;-4.79;92.06;95146.84;4838577;29;20064;-61
2021/12/19 07:00:39;;;;;;;25.85;9.50;;;;;;;-5.01;92.54;95155.41;4838695;29;20048;-61
2021/12/19 07:03:06;;;;;;;25.25;9.30;;;;;;;-4.99;92.50;95150.56;4838809;29;20492;-62
2021/12/19 07:05:33;;;;;;;25.27;9.20;;;;;;;-4.88;92.13;95153.94;4838413;29;20067;-61
2021/12/19 07:08:00;;;;;;;22.97;8.17;;;;;;;-5.04;92.31;95159.47;4838858;29;20046;-62
2021/12/19 07:10:27;;;;;;;25.20;8.80;;;;;;;-5.19;92.45;95162.34;4840340;29;20041;-61
2021/12/19 07:12:53;;;;;;;26.38;9.25;;;;;;;-5.21;93.03;95156.47;4842410;29;20050;-61
2021/12/19 07:15:24;;;;;;;25.70;9.10;;;;;;;-5.21;92.96;95156.47;4842246;29;20057;-61
2021/12/19 07:17:51;;;;;;;30.73;9.50;;;;;;;-5.26;93.26;95151.16;4841672;29;20646;-61
2021/12/19 07:20:18;;;;;;;31.23;9.70;;;;;;;-5.27;93.81;95153.06;4842096;29;20073;-61
2021/12/19 07:22:45;;;;;;;36.75;9.32;;;;;;;-5.24;94.27;95149.00;4841677;29;21424;-61
2021/12/19 07:25:12;;;;;;;41.83;10.15;;;;;;;-5.17;94.34;95143.31;4841989;29;20515;-61
2021/12/19 07:27:39;;;;;;;32.88;9.50;;;;;;;-5.18;94.13;95153.22;4841578;29;20049;-61
2021/12/19 07:30:06;;;;;;;32.00;10.13;;;;;;;-5.24;94.20;95152.47;4841758;29;20057;-61
2021/12/19 07:32:34;;;;;;;32.63;9.40;;;;;;;-5.41;94.26;95152.16;4841670;29;20050;-61
2021/12/19 07:35:19;;;;;;;34.10;10.70;;;;;;;-5.43;95.23;95154.31;4853385;29;20054;-61
2021/12/19 07:37:48;;;;;;;30.73;9.85;;;;;;;-5.39;95.31;95150.00;4817162;29;20912;-61
2021/12/19 07:40:17;;;;;;;30.85;9.60;;;;;;;-5.38;95.22;95143.53;4818860;29;20051;-61
2021/12/19 07:42:44;;;;;;;28.98;10.10;;;;;;;-5.26;94.97;95151.97;4803942;29;20051;-61
2021/12/19 07:45:13;;;;;;;29.17;9.30;;;;;;;-5.39;95.02;95147.31;4805227;29;20054;-61
2021/12/19 07:47:41;;;;;;;30.75;10.23;;;;;;;-5.28;95.24;95146.09;4804781;29;20054;-61
2021/12/19 07:50:10;;;;;;;35.25;12.98;;;;;;;-5.20;94.88;95139.31;4817962;29;20049;-61
2021/12/19 07:52:38;;;;;;;36.35;14.13;;;;;;;-5.00;94.43;95132.94;4841128;29;20050;-61
2021/12/19 07:55:05;;;;;;;38.90;16.67;;;;;;;-5.06;93.36;95128.72;4841763;29;20048;-62
2021/12/19 07:57:33;;;;;;;40.30;17.43;;;;;;;-5.06;93.60;95134.09;4854692;29;20061;-62
2021/12/19 08:00:00;;;;;;;32.63;12.85;;;;;;;-5.06;93.47;95129.53;4841496;29;20052;-61
2021/12/19 08:02:27;;;;;;;38.20;16.15;;;;;;;-4.95;93.36;95129.38;4840595;29;20045;-61
2021/12/19 08:04:54;;;;;;;31.25;12.15;;;;;;;-4.96;93.34;95131.28;4841369;29;20495;-61
2021/12/19 08:07:23;;;;;;;29.73;10.38;;;;;;;-4.69;92.93;95133.34;4840771;29;20042;-59
2021/12/19 08:10:11;;;;;;;57.77;23.07;;;;;;;-4.57;91.48;95124.06;4841468;29;20053;-62
2021/12/19 08:12:39;;;;;;;52.95;24.55;;;;;;;-3.63;89.18;95131.16;4840927;29;20480;-64
2021/12/19 08:15:07;;;;;;;37.30;16.95;;;;;;;-1.22;82.33;95129.31;4841247;29;20177;-62
2021/12/19 08:17:34;;;;;;;24.25;10.80;;;;;;;0.58;73.73;95121.19;4840892;29;20049;-62
2021/12/19 08:20:03;;;;;;;22.92;9.90;;;;;;;1.75;66.29;95128.91;4841091;29;20121;-62
2021/12/19 08:22:31;;;;;;;49.10;21.97;;;;;;;3.13;64.64;95122.50;4840663;29;20171;-63
2021/12/19 08:24:58;;;;;;;23.30;11.05;;;;;;;3.69;59.41;95109.13;4841162;29;20411;-63
2021/12/19 08:27:26;;;;;;;21.13;9.63;;;;;;;2.04;61.82;95116.44;4840272;29;20068;-62
2021/12/19 08:29:54;;;;;;;23.88;12.88;;;;;;;3.18;60.42;95112.22;4841274;29;20084;-62
2021/12/19 08:32:25;;;;;;;24.50;12.93;;;;;;;4.40;57.01;95115.03;4840420;29;20068;-61
2021/12/19 08:34:52;;;;;;;31.30;16.30;;;;;;;5.45;53.68;95108.34;4839641;29;20052;-63
2021/12/19 08:37:19;;;;;;;22.38;13.88;;;;;;;6.20;50.37;95106.53;4820215;29;20050;-63
2021/12/19 08:39:46;;;;;;;27.55;18.17;;;;;;;5.58;51.33;95109.06;4803037;29;20046;-63
2021/12/19 08:42:14;;;;;;;20.52;11.82;;;;;;;5.02;52.11;95106.53;4804755;29;20043;-62
2021/12/19 08:44:41;;;;;;;23.63;15.60;;;;;;;6.08;51.68;95095.78;4802927;29;21847;-63
2021/12/19 08:47:09;;;;;;;22.97;15.10;;;;;;;6.55;48.67;95100.19;4804386;29;20053;-62
2021/12/19 08:49:35;;;;;;;23.85;15.77;;;;;;;6.56;48.85;95099.03;4808697;29;20050;-62
2021/12/19 08:52:04;;;;;;;21.08;13.13;;;;;;;5.92;50.47;95095.78;4840822;29;20064;-63
2021/12/19 08:54:30;;;;;;;19.67;11.73;;;;;;;6.64;48.40;95105.41;4840089;29;20064;-63
2021/12/19 08:56:58;;;;;;;21.08;13.27;;;;;;;7.46;46.20;95090.47;4840329;29;20049;-63
2021/12/19 08:59:26;;;;;;;18.53;11.13;;;;;;;6.65;48.14;95088.69;4839701;29;20167;-63
2021/12/19 09:01:54;;;;;;;17.00;10.57;;;;;;;7.40;45.65;95078.25;4840467;29;20054;-63
2021/12/19 09:04:21;;;;;;;20.58;11.00;;;;;;;6.69;47.63;95073.19;4838911;29;20056;-58
2021/12/19 09:06:48;;;;;;;18.25;10.68;;;;;;;8.18;43.48;95075.06;4839417;29;20038;-63
2021/12/19 09:09:15;;;;;;;17.90;10.80;;;;;;;8.30;43.83;95072.09;4840631;29;20071;-63
2021/12/19 09:11:42;;;;;;;17.47;10.87;;;;;;;7.27;45.46;95076.91;4838671;29;20050;-63
2021/12/19 09:14:09;;;;;;;18.65;10.80;;;;;;;9.08;43.07;95063.16;4840051;29;20420;-63
2021/12/19 09:16:36;;;;;;;17.63;10.38;;;;;;;8.80;41.84;95064.47;4840154;29;20529;-62
2021/12/19 09:19:12;;;;;;;18.50;11.07;;;;;;;6.97;46.00;95067.44;4838779;29;20058;-62
2021/12/19 09:21:40;;;;;;;17.25;10.55;;;;;;;9.78;41.58;95066.03;4839694;29;20084;-63
2021/12/19 09:24:08;;;;;;;16.70;10.30;;;;;;;10.28;39.34;95066.31;4840286;29;20491;-62
2021/12/19 09:26:35;;;;;;;17.88;10.48;;;;;;;10.57;38.83;95060.97;4839726;29;20071;-62
2021/12/19 09:29:02;;;;;;;18.58;11.32;;;;;;;10.70;39.52;95066.88;4840005;29;20492;-62
2021/12/19 09:31:29;;;;;;;16.80;10.63;;;;;;;10.66;39.19;95061.34;4839033;29;20046;-62
2021/12/19 09:33:57;;;;;;;17.65;11.23;;;;;;;11.19;36.48;95065.41;4839440;29;20304;-63
2021/12/19 09:36:24;;;;;;;16.33;10.40;;;;;;;10.61;38.18;95063.72;4831419;29;20165;-62
2021/12/19 09:38:51;;;;;;;16.02;10.68;;;;;;;10.76;37.91;95057.06;4805572;29;20493;-62
2021/12/19 09:41:29;;;;;;;17.08;10.90;;;;;;;12.02;35.86;95054.38;4822055;29;20473;-62
2021/12/19 09:43:58;;;;;;;18.17;11.43;;;;;;;11.49;36.06;95050.47;4821075;29;20409;-62
2021/12/19 09:46:29;;;;;;;15.32;10.30;;;;;;;9.78;40.54;95052.34;4820944;29;20050;-63
2021/12/19 09:48:57;;;;;;;15.87;10.10;;;;;;;10.25;38.58;95049.84;4821733;29;20069;-62
2021/12/19 09:51:24;;;;;;;15.43;9.93;;;;;;;11.25;36.95;95044.59;4836807;29;20061;-63
2021/12/19 09:53:52;;;;;;;15.40;10.30;;;;;;;9.89;39.25;95046.91;4839962;29;20046;-63
2021/12/19 09:56:18;;;;;;;50.92;32.25;;;;;;;10.75;38.25;95041.78;4839594;29;20042;-63
2021/12/19 09:58:48;;;;;;;18.40;11.60;;;;;;;11.50;36.31;95033.59;4839139;29;20054;-63
2021/12/19 10:01:16;;;;;;;16.83;10.80;;;;;;;11.95;35.78;95030.38;4839473;29;20053;-63
2021/12/19 10:03:43;;;;;;;20.80;11.57;;;;;;;12.10;35.49;95020.91;4839214;29;20052;-63
2021/12/19 10:06:27;;;;;;;18.58;11.52;;;;;;;13.25;33.23;95020.28;4839164;29;20053;-64
2021/12/19 10:09:20;;;;;;;15.13;10.32;;;;;;;13.03;33.77;95010.63;4838898;29;20077;-63
2021/12/19 10:14:24;;;;;;;16.10;10.53;;;;;;;11.60;36.51;95013.53;4839245;29;20129;-63
2021/12/19 10:16:51;;;;;;;15.85;10.57;;;;;;;14.05;33.06;95001.84;4838877;29;20692;-63
2021/12/19 10:19:19;;;;;;;19.52;11.73;;;;;;;14.27;32.03;94991.31;4837980;29;20440;-63
2021/12/19 10:21:45;;;;;;;15.82;9.70;;;;;;;13.56;32.16;94992.84;4839005;29;20380;-63
2021/12/19 10:24:32;;;;;;;15.07;9.85;;;;;;;12.85;34.10;94985.94;4839018;29;20503;-63
2021/12/19 10:26:59;;;;;;;21.97;11.50;;;;;;;14.97;31.34;94973.44;4838419;29;20050;-64
2021/12/19 10:29:45;;;;;;;16.23;10.60;;;;;;;14.66;31.20;94972.69;4838785;29;20054;-64
2021/12/19 10:32:12;;;;;;;16.23;10.85;;;;;;;12.98;33.24;94967.75;4839048;29;20042;-64
2021/12/19 10:34:39;;;;;;;14.85;9.95;;;;;;;13.15;34.11;94968.78;4853076;29;20064;-64
2021/12/19 10:37:30;;;;;;;16.20;10.55;;;;;;;15.20;30.84;94966.38;4822555;29;20042;-64
2021/12/19 10:40:02;;;;;;;14.37;9.67;;;;;;;12.97;32.96;94966.16;4817395;29;20050;-64
2021/12/19 10:42:34;;;;;;;15.60;10.23;;;;;;;13.16;34.54;94962.88;4819335;29;20051;-65
2021/12/19 10:47:47;;;;;;;14.68;10.05;;;;;;;11.80;35.68;94961.66;4824019;29;21572;-64
2021/12/19 10:50:14;;;;;;;16.80;11.07;;;;;;;12.39;35.31;94957.50;4831681;29;20053;-64
2021/12/19 10:52:40;;;;;;;14.67;10.20;;;;;;;12.05;36.11;94957.25;4842258;29;20050;-64
2021/12/19 10:55:10;;;;;;;16.23;10.38;;;;;;;13.45;33.74;94956.34;4842588;29;20113;-64
2021/12/19 10:57:40;;;;;;;13.95;9.40;;;;;;;14.44;32.11;94945.34;4841511;29;20050;-64
2021/12/19 11:00:11;;;;;;;16.50;9.52;;;;;;;14.15;33.56;94936.66;4842883;29;20054;-64
2021/12/19 11:02:43;;;;;;;16.15;10.45;;;;;;;14.86;31.61;94939.66;4840804;29;20076;-64
2021/12/19 11:05:47;;;;;;;16.97;10.33;;;;;;;15.25;31.63;94930.72;4842716;29;20057;-64
2021/12/19 11:08:14;;;;;;;20.08;10.98;;;;;;;14.17;33.15;94923.22;4840198;29;20052;-64
2021/12/19 11:10:41;;;;;;;14.93;10.55;;;;;;;13.41;34.57;94923.28;4842005;29;20065;-64
2021/12/19 11:13:11;;;;;;;22.00;11.50;;;;;;;14.33;33.21;94923.41;4842277;29;20048;-64
2021/12/19 11:15:39;;;;;;;25.85;13.50;;;;;;;16.54;30.40;94910.81;4842036;29;20058;-64
2021/12/19 11:18:05;;;;;;;17.27;11.20;;;;;;;15.47;31.49;94913.75;4842448;29;20050;-64
2021/12/19 11:20:33;;;;;;;17.48;10.35;;;;;;;17.20;29.58;94905.34;4841595;29;20413;-64
2021/12/19 11:23:00;;;;;;;13.27;9.65;;;;;;;15.40;31.08;94902.81;4842213;29;20041;-64
2021/12/19 11:25:27;;;;;;;22.92;10.75;;;;;;;17.06;29.61;94901.72;4841518;29;20067;-64
2021/12/19 11:27:54;;;;;;;17.98;11.20;;;;;;;16.98;28.93;94903.09;4842232;29;20061;-64
2021/12/19 11:30:22;;;;;;;19.47;10.73;;;;;;;18.68;27.07;94892.50;4841642;29;20046;-62
2021/12/19 11:32:55;;;;;;;16.75;10.70;;;;;;;17.17;28.99;94887.59;4841949;29;20046;-64
2021/12/19 11:35:25;;;;;;;17.98;10.40;;;;;;;18.46;27.60;94883.28;4841332;29;20054;-63
2021/12/19 11:37:57;;;;;;;16.05;11.70;;;;;;;17.97;28.25;94881.53;4842146;29;20041;-64
2021/12/19 11:40:30;;;;;;;15.55;10.82;;;;;;;18.89;26.87;94868.06;4841548;29;20064;-64
2021/12/19 11:43:05;;;;;;;15.17;10.20;;;;;;;16.57;29.68;94865.63;4842153;29;20045;-64
2021/12/19 11:45:42;;;;;;;28.02;11.43;;;;;;;17.75;27.92;94859.88;4841623;29;20046;-64
2021/12/19 11:48:34;;;;;;;21.42;11.30;;;;;;;19.31;27.01;94857.50;4841956;29;20042;-64
2021/12/19 11:51:05;;;;;;;15.63;9.65;;;;;;;19.44;25.50;94853.94;4840658;29;20365;-64
2021/12/19 11:53:34;;;;;;;16.02;11.25;;;;;;;17.44;28.58;94848.44;4840880;29;20110;-64
2021/12/19 11:56:08;;;;;;;17.73;11.40;;;;;;;17.90;27.95;94834.50;4840805;29;20048;-64
2021/12/19 11:58:42;;;;;;;26.05;12.82;;;;;;;18.80;27.93;94832.59;4840738;29;20053;-64
2021/12/19 12:01:12;;;;;;;16.38;11.52;;;;;;;18.27;27.53;94826.66;4841609;29;20383;-65
2021/12/19 12:03:45;;;;;;;16.65;10.10;;;;;;;18.09;28.10;94825.22;4840891;29;20057;-64
2021/12/19 12:06:19;;;;;;;15.05;9.43;;;;;;;16.91;28.97;94822.88;4837139;29;20069;-64
2021/12/19 12:09:05;;;;;;;40.17;24.97;;;;;;;16.70;30.09;94826.91;4812079;29;20054;-64
2021/12/19 12:11:33;;;;;;;20.02;11.93;;;;;;;17.27;29.93;94813.63;4822743;29;20050;-64
2021/12/19 12:14:21;;;;;;;14.13;9.70;;;;;;;18.21;28.04;94815.34;4822848;29;20256;-65
2021/12/19 12:16:54;;;;;;;15.98;9.57;;;;;;;16.47;30.02;94809.25;4822475;29;20651;-64
2021/12/19 12:19:40;;;;;;;17.23;10.55;;;;;;;14.92;33.04;94805.31;4822867;29;20047;-64
2021/12/19 12:25:08;;;;;;;18.75;9.25;;;;;;;9.82;42.77;94808.34;4835650;29;20211;-63
2021/12/19 12:27:44;;;;;;;24.75;14.68;;;;;;;8.91;45.83;94799.00;4822144;29;20056;-63
2021/12/19 12:30:13;;;;;;;22.15;12.90;;;;;;;8.51;47.46;94792.53;4822444;29;20051;-63
2021/12/19 12:32:41;;;;;;;20.13;10.45;;;;;;;8.37;48.17;94790.47;4835952;29;20148;-63
2021/12/19 12:35:11;;;;;;;13.90;7.50;;;;;;;7.99;49.43;94786.25;4822556;29;20047;-63
2021/12/19 12:37:42;;;;;;;17.60;7.43;;;;;;;7.68;51.32;94779.31;4822122;29;20065;-63
2021/12/19 12:40:24;;;;;;;15.27;7.60;;;;;;;7.36;52.44;94779.78;4822632;29;20046;-63